• Join FlightAware (Why Join?)
  • Login
  • US Flag 
12:39PM EDT


 

Airport Tracker/Info


-or-


 

Live Flight TrackerFlight Track Log ✈ N62JM ✈ 15-Oct-2013 ✈ KFME - 2G4

Flight Track Log - Related Links

Times and Time Zones

All times are in EDT time to prevent confusion due to time zone crossing. See the N62JM flight status page for this flight to view local times or setup timezone preferences in your user account.

Time Position Orientation Groundspeed Altitude Reporting Facility
EDT Latitude Longitude Course Direction KTS MPH feet Rate Location/Type
03:46PM 39.2333 -77.4833 288° West 139 160 2,600  Level Potomac TRACON
03:47PM 39.2500 -77.5500 288° West 145 167 2,500 -120 Descending Potomac TRACON
03:48PM 39.2500 -77.6000 270° West 156 180 2,400 120 Descending Potomac TRACON
03:49PM 39.2667 -77.6500 293° West 133 153 2,800 480 Climbing Potomac TRACON
03:50PM 39.2833 -77.6833 303° West 131 151 3,400 600 Climbing Potomac TRACON
03:51PM 39.2833 -77.7333 270° West 121 139 4,100 540 Climbing Potomac TRACON
03:52PM 39.3000 -77.7833 293° West 134 154 4,500 240 Climbing Potomac TRACON
03:53PM 39.3167 -77.8167 303° West 142 163 4,600 120 Climbing Potomac TRACON
03:54PM 39.3333 -77.8667 293° West 144 166 4,800 300 Climbing Potomac TRACON
03:55PM 39.3333 -77.9167 270° West 130 150 5,300 480 Climbing Potomac TRACON
03:56PM 39.3333 -77.9667 270° West 130 150 5,800 420 Climbing Potomac TRACON
03:57PM 39.3500 -78.0000 303° West 127 146 6,200 360 Climbing Potomac TRACON
03:58PM 39.3514 -78.0367 273° West 129 148 6,400 60 Climbing Washington Center
03:59PM 39.3650 -78.0800 292° West 143 165 6,400  Level Washington Center
04:00PM 39.3786 -78.1342 288° West 148 170 6,400  Level Washington Center
04:01PM 39.3858 -78.1828 281° West 148 170 6,400  Level Washington Center
04:02PM 39.3931 -78.2286 282° West 148 170 6,400  Level Washington Center
04:03PM 39.4044 -78.2803 286° West 148 170 6,400  Level Washington Center
04:04PM 39.4117 -78.3314 280° West 148 170 6,400  Level Washington Center
04:05PM 39.4231 -78.3831 286° West 148 170 6,400  Level Washington Center
04:06PM 39.4342 -78.4372 285° West 148 170 6,400  Level Washington Center
04:07PM 39.4433 -78.4886 283° West 148 170 6,400  Level Washington Center
04:08PM 39.4525 -78.5428 282° West 148 170 6,400  Level Washington Center
04:09PM 39.4617 -78.5942 283° West 148 170 6,400  Level Washington Center
04:10PM 39.4686 -78.6483 279° West 148 170 6,400  Level Washington Center
04:11PM 39.4778 -78.6997 283° West 143 165 6,400  Level Washington Center
04:12PM 39.4847 -78.7536 279° West 143 165 6,400  Level Washington Center
04:13PM 39.4917 -78.8025 280° West 143 165 6,400  Level Washington Center
04:14PM 39.4986 -78.8567 279° West 143 165 6,400  Level Washington Center
04:15PM 39.5097 -78.9081 286° West 143 165 6,400 -60 Level Washington Center
04:16PM 39.5144 -78.9622 276° West 143 165 6,300 -120 Descending Washington Center
04:17PM 39.5236 -79.0111 284° West 143 165 6,200 -120 Descending Washington Center
04:18PM 39.5367 -79.0656 287° West 143 165 6,100 -120 Descending Washington Center
04:19PM 39.5475 -79.1144 286° West 148 170 6,000 -240 Descending Washington Center
04:21PM 39.6014 -79.2258 302° West 155 178 5,400 -300 Descending Cleveland Center
04:23PM 39.5667 -79.3333 279° West  Level FlightAware Approximate
04:30PM 39.5808 -79.3359 279° West  Level Estimated
04:31PM 39.5808 -79.3359 279° West  Level Estimated
04:32PM 39.5808 -79.3359 279° West  Level Estimated
04:33PM 39.5808 -79.3359 279° West  Level Estimated
04:34PM 39.5808 -79.3359 279° West  Level Estimated